Terminal Aerodrome Forecast
Issued by NWS

Home | Current Version | Previous Version | Text Only | Print | Product List | Glossary On
Versions: 1 2 3 4 5 6 7 8 9 10 11 12 13 14 15 16 17 18 19
000
FTUS45 KGJT 230548
TAFASE
TAF
KASE 230548Z 2306/2406 00000KT P6SM FEW060 BKN080 OVC100
      WS020/22040KT
     FM230900 17008KT P6SM VCSH BKN045
     FM231200 03010KT 4SM -SN OVC030
     FM231400 02013G22KT 2SM -SN OVC025 WS020/24035KT
     FM232100 33010KT P6SM VCSH BKN020
     FM240000 29006KT P6SM OVC025=

USA.gov is the U.S. government's official web portal to all federal, state and local government web resources and services.